Photometre #627[NE_1.6] Izana AOT

File : 20190924_627.hum

24/09/2019,07:36:07,TEMP=16.4,BA=5.64,STAT.s
24/09/2019,07:39:01,TEMP=16.4,BA=5.64,STAT.s
24/09/2019,07:42:25,TEMP=16.4,BA=5.64,STAT.s
24/09/2019,07:46:26,TEMP=16.4,BA=5.64,STAT.s
24/09/2019,07:51:17,TEMP=16.4,BA=5.64,STAT.s
24/09/2019,07:57:15,TEMP=16.4,BA=5.64,STAT.s
24/09/2019,08:04:45,TEMP=16.4,BA=5.64,STAT.s
24/09/2019,08:08:20,TEMP=16.4,BA=5.64,STAT.s
24/09/2019,08:12:20,TEMP=16.4,BA=5.64,STAT.s
24/09/2019,08:16:50,TEMP=16.4,BA=5.64,STAT.s
24/09/2019,08:21:56,TEMP=16.4,BA=5.64,STAT.s
24/09/2019,08:27:46,TEMP=16.4,BA=5.64,STAT.s
24/09/2019,08:34:31,TEMP=16.4,BA=5.64,STAT.s
24/09/2019,08:42:24,TEMP=16.4,BA=5.64,STAT.s
24/09/2019,08:51:46,TEMP=16.4,BA=5.64,STAT.s
24/09/2019,09:03:08,TEMP=16.4,BA=5.64,STAT.s
24/09/2019,09:17:13,TEMP=16.4,BA=5.60,STAT.s
24/09/2019,09:46:32,TEMP=16.4,BA=5.60,STAT.s
24/09/2019,09:58:32,TEMP=16.4,BA=5.60,STAT.s
24/09/2019,10:13:32,TEMP=16.4,BA=5.60,STAT.s
24/09/2019,10:28:43,TEMP=20.7,BA=5.60,STAT.D=23.0,ExtBa=13.50
24/09/2019,10:43:44,TEMP=20.8,BA=5.60,STAT.D=23.0,ExtBa=13.50
24/09/2019,10:58:46,TEMP=20.2,BA=5.60,STAT.F,ExtBa=13.50
24/09/2019,11:13:55,TEMP=21.1,BA=5.52,STAT.D=22.0,ExtBa=12.70
24/09/2019,11:28:44,TEMP=20.7,BA=5.60,STAT.D=23.0,ExtBa=13.40
24/09/2019,11:43:45,TEMP=21.2,BA=5.60,STAT.D=23.0,ExtBa=13.50
24/09/2019,11:58:32,TEMP=22.7,BA=5.56,STAT.s
24/09/2019,12:13:32,TEMP=22.7,BA=5.60,STAT.s
24/09/2019,12:28:44,TEMP=19.8,BA=5.60,STAT.D=23.0,ExtBa=13.50
24/09/2019,12:43:45,TEMP=19.3,BA=5.60,STAT.D=23.0,ExtBa=13.50
24/09/2019,12:58:46,TEMP=19.4,BA=5.60,STAT.F,ExtBa=13.50
24/09/2019,13:13:45,TEMP=19.8,BA=5.60,STAT.D=23.0,ExtBa=13.30
24/09/2019,13:28:45,TEMP=20.4,BA=5.52,STAT.D=23.0,ExtBa=13.50
24/09/2019,13:43:45,TEMP=20.4,BA=5.60,STAT.D=23.0,ExtBa=13.50
24/09/2019,14:28:44,TEMP=20.0,BA=5.56,STAT.D=23.0,ExtBa=13.40
24/09/2019,14:43:44,TEMP=20.3,BA=5.60,STAT.D=23.0,ExtBa=13.40
24/09/2019,14:58:46,TEMP=20.9,BA=5.60,STAT.F,ExtBa=13.40
24/09/2019,15:13:57,TEMP=21.2,BA=5.52,STAT.D=22.0,ExtBa=12.70
24/09/2019,15:28:44,TEMP=21.1,BA=5.60,STAT.D=23.0,ExtBa=13.30
24/09/2019,15:43:44,TEMP=22.8,BA=5.60,STAT.D=23.0,ExtBa=13.40
24/09/2019,15:58:45,TEMP=23.7,BA=5.56,STAT.F,ExtBa=13.50
24/09/2019,16:14:03,TEMP=24.0,BA=5.48,STAT.B=23.0,ExtBa=12.70
24/09/2019,16:40:04,TEMP=22.6,BA=5.48,STAT.B=23.0,ExtBa=13.20
24/09/2019,16:54:09,TEMP=22.9,BA=5.48,STAT.A=23.0,ExtBa=13.00
24/09/2019,17:05:31,TEMP=23.0,BA=5.48,STAT.A=23.0,ExtBa=13.20
24/09/2019,17:14:53,TEMP=23.1,BA=5.48,STAT.A=23.0,ExtBa=13.20
24/09/2019,17:22:46,TEMP=22.8,BA=5.48,STAT.A=23.0,ExtBa=13.20
24/09/2019,17:29:30,TEMP=22.6,BA=5.48,STAT.C=23.0,ExtBa=13.20
24/09/2019,17:44:48,TEMP=22.4,BA=5.44,STAT.A=22.0,ExtBa=12.70
24/09/2019,17:46:43,TEMP=22.4,BA=5.44,STAT.A=22.0,ExtBa=12.80
24/09/2019,17:48:38,TEMP=22.3,BA=5.44,STAT.A=22.0,ExtBa=12.80
24/09/2019,17:50:33,TEMP=22.2,BA=5.44,STAT.A=22.0,ExtBa=12.80
24/09/2019,17:52:31,TEMP=22.0,BA=5.44,STAT.B=22.0,ExtBa=12.80
24/09/2019,18:02:35,TEMP=20.9,BA=5.44,STAT.A=22.0,ExtBa=12.70
24/09/2019,18:05:59,TEMP=20.3,BA=5.44,STAT.A=23.0,ExtBa=12.90
24/09/2019,18:10:50,TEMP=19.6,BA=5.44,STAT.A=23.0,ExtBa=13.00
24/09/2019,18:14:51,TEMP=18.7,BA=5.44,STAT.A=23.0,ExtBa=13.00
24/09/2019,18:18:15,TEMP=17.8,BA=5.44,STAT.A=23.0,ExtBa=13.00
24/09/2019,18:21:09,TEMP=17.2,BA=5.44,STAT.A=23.0,ExtBa=13.00